sensor_id;sensor_type;location;lat;lon;timestamp;P1;durP1;ratioP1;P2;durP2;ratioP2
3967;SDS011;9221;42.646;23.380;2024-01-30T00:01:05;11.87;;;3.90;;
3967;SDS011;9221;42.646;23.380;2024-01-30T00:03:30;11.70;;;3.40;;
3967;SDS011;9221;42.646;23.380;2024-01-30T00:05:56;11.30;;;3.70;;
3967;SDS011;9221;42.646;23.380;2024-01-30T00:08:21;11.40;;;4.03;;
3967;SDS011;9221;42.646;23.380;2024-01-30T00:10:47;11.27;;;3.93;;
3967;SDS011;9221;42.646;23.380;2024-01-30T00:13:12;8.73;;;3.97;;
3967;SDS011;9221;42.646;23.380;2024-01-30T00:15:39;13.07;;;2.97;;
3967;SDS011;9221;42.646;23.380;2024-01-30T00:18:05;11.63;;;3.30;;
3967;SDS011;9221;42.646;23.380;2024-01-30T00:20:32;7.63;;;3.10;;
3967;SDS011;9221;42.646;23.380;2024-01-30T00:22:58;7.00;;;2.70;;
3967;SDS011;9221;42.646;23.380;2024-01-30T00:25:23;6.23;;;2.67;;
3967;SDS011;9221;42.646;23.380;2024-01-30T00:27:49;7.23;;;2.77;;
3967;SDS011;9221;42.646;23.380;2024-01-30T00:30:14;7.33;;;2.83;;
3967;SDS011;9221;42.646;23.380;2024-01-30T00:32:40;9.63;;;3.83;;
3967;SDS011;9221;42.646;23.380;2024-01-30T00:35:05;7.53;;;2.90;;
3967;SDS011;9221;42.646;23.380;2024-01-30T00:37:31;13.90;;;3.57;;
3967;SDS011;9221;42.646;23.380;2024-01-30T00:39:57;9.20;;;2.60;;
3967;SDS011;9221;42.646;23.380;2024-01-30T00:42:23;7.40;;;2.57;;
3967;SDS011;9221;42.646;23.380;2024-01-30T00:44:49;12.17;;;3.30;;
3967;SDS011;9221;42.646;23.380;2024-01-30T00:47:15;17.53;;;3.63;;
3967;SDS011;9221;42.646;23.380;2024-01-30T00:49:40;12.20;;;3.17;;
3967;SDS011;9221;42.646;23.380;2024-01-30T00:52:06;10.40;;;3.23;;
3967;SDS011;9221;42.646;23.380;2024-01-30T00:54:31;7.50;;;2.57;;
3967;SDS011;9221;42.646;23.380;2024-01-30T00:56:57;13.07;;;3.57;;
3967;SDS011;9221;42.646;23.380;2024-01-30T00:59:22;6.60;;;2.47;;
3967;SDS011;9221;42.646;23.380;2024-01-30T01:01:48;6.90;;;2.60;;
3967;SDS011;9221;42.646;23.380;2024-01-30T01:04:13;8.00;;;3.37;;
3967;SDS011;9221;42.646;23.380;2024-01-30T01:06:39;5.60;;;2.40;;
3967;SDS011;9221;42.646;23.380;2024-01-30T01:09:07;14.03;;;3.33;;
3967;SDS011;9221;42.646;23.380;2024-01-30T01:11:33;7.50;;;2.90;;
3967;SDS011;9221;42.646;23.380;2024-01-30T01:13:58;8.43;;;2.87;;
3967;SDS011;9221;42.646;23.380;2024-01-30T01:16:24;9.30;;;3.10;;
3967;SDS011;9221;42.646;23.380;2024-01-30T01:18:49;9.20;;;3.20;;
3967;SDS011;9221;42.646;23.380;2024-01-30T01:21:15;9.40;;;3.20;;
3967;SDS011;9221;42.646;23.380;2024-01-30T01:23:40;9.40;;;2.67;;
3967;SDS011;9221;42.646;23.380;2024-01-30T01:26:07;13.50;;;3.70;;
3967;SDS011;9221;42.646;23.380;2024-01-30T01:28:34;10.53;;;3.27;;
3967;SDS011;9221;42.646;23.380;2024-01-30T01:31:00;9.30;;;3.40;;
3967;SDS011;9221;42.646;23.380;2024-01-30T01:33:30;11.23;;;3.90;;
3967;SDS011;9221;42.646;23.380;2024-01-30T01:35:59;10.60;;;3.73;;
3967;SDS011;9221;42.646;23.380;2024-01-30T01:38:27;13.83;;;3.67;;
3967;SDS011;9221;42.646;23.380;2024-01-30T01:40:53;9.80;;;3.00;;
3967;SDS011;9221;42.646;23.380;2024-01-30T01:43:18;11.53;;;3.63;;
3967;SDS011;9221;42.646;23.380;2024-01-30T01:45:44;8.47;;;2.93;;
3967;SDS011;9221;42.646;23.380;2024-01-30T01:48:10;18.30;;;4.17;;
3967;SDS011;9221;42.646;23.380;2024-01-30T01:50:37;7.87;;;2.90;;
3967;SDS011;9221;42.646;23.380;2024-01-30T01:53:03;12.13;;;3.80;;
3967;SDS011;9221;42.646;23.380;2024-01-30T01:55:32;11.80;;;4.13;;
3967;SDS011;9221;42.646;23.380;2024-01-30T01:57:58;9.80;;;3.67;;
3967;SDS011;9221;42.646;23.380;2024-01-30T02:00:23;5.20;;;2.50;;
3967;SDS011;9221;42.646;23.380;2024-01-30T02:02:49;10.67;;;3.70;;
3967;SDS011;9221;42.646;23.380;2024-01-30T02:05:16;19.17;;;3.00;;
3967;SDS011;9221;42.646;23.380;2024-01-30T02:07:43;10.67;;;2.77;;
3967;SDS011;9221;42.646;23.380;2024-01-30T02:10:09;6.80;;;2.27;;
3967;SDS011;9221;42.646;23.380;2024-01-30T02:12:36;8.40;;;2.80;;
3967;SDS011;9221;42.646;23.380;2024-01-30T02:15:02;5.40;;;1.97;;
3967;SDS011;9221;42.646;23.380;2024-01-30T02:17:28;7.07;;;2.40;;
3967;SDS011;9221;42.646;23.380;2024-01-30T02:19:53;8.70;;;2.47;;
3967;SDS011;9221;42.646;23.380;2024-01-30T02:22:19;10.53;;;3.53;;
3967;SDS011;9221;42.646;23.380;2024-01-30T02:24:46;6.20;;;2.60;;
3967;SDS011;9221;42.646;23.380;2024-01-30T02:27:12;8.93;;;2.67;;
3967;SDS011;9221;42.646;23.380;2024-01-30T02:29:37;11.80;;;2.83;;
3967;SDS011;9221;42.646;23.380;2024-01-30T02:32:03;7.63;;;2.40;;
3967;SDS011;9221;42.646;23.380;2024-01-30T02:34:28;10.17;;;3.10;;
3967;SDS011;9221;42.646;23.380;2024-01-30T02:36:54;9.30;;;2.90;;
3967;SDS011;9221;42.646;23.380;2024-01-30T02:39:19;12.67;;;2.87;;
3967;SDS011;9221;42.646;23.380;2024-01-30T02:41:45;10.10;;;3.23;;
3967;SDS011;9221;42.646;23.380;2024-01-30T02:44:10;6.33;;;2.87;;
3967;SDS011;9221;42.646;23.380;2024-01-30T02:46:36;9.83;;;2.80;;
3967;SDS011;9221;42.646;23.380;2024-01-30T02:49:01;9.10;;;3.10;;
3967;SDS011;9221;42.646;23.380;2024-01-30T02:51:27;6.33;;;2.57;;
3967;SDS011;9221;42.646;23.380;2024-01-30T02:53:52;5.57;;;2.60;;
3967;SDS011;9221;42.646;23.380;2024-01-30T02:56:18;9.47;;;2.70;;
3967;SDS011;9221;42.646;23.380;2024-01-30T02:58:43;7.60;;;2.60;;
3967;SDS011;9221;42.646;23.380;2024-01-30T03:01:09;7.50;;;2.80;;
3967;SDS011;9221;42.646;23.380;2024-01-30T03:03:34;6.97;;;2.63;;
3967;SDS011;9221;42.646;23.380;2024-01-30T03:06:01;10.40;;;2.90;;
3967;SDS011;9221;42.646;23.380;2024-01-30T03:08:26;6.10;;;2.43;;
3967;SDS011;9221;42.646;23.380;2024-01-30T03:10:52;8.83;;;2.10;;
3967;SDS011;9221;42.646;23.380;2024-01-30T03:13:18;4.57;;;2.10;;
3967;SDS011;9221;42.646;23.380;2024-01-30T03:15:43;15.53;;;3.13;;
3967;SDS011;9221;42.646;23.380;2024-01-30T03:18:09;3.97;;;1.87;;
3967;SDS011;9221;42.646;23.380;2024-01-30T03:20:34;3.70;;;1.60;;
3967;SDS011;9221;42.646;23.380;2024-01-30T03:23:00;5.50;;;2.27;;
3967;SDS011;9221;42.646;23.380;2024-01-30T03:25:25;5.03;;;1.90;;
3967;SDS011;9221;42.646;23.380;2024-01-30T03:27:51;7.13;;;2.03;;
3967;SDS011;9221;42.646;23.380;2024-01-30T03:30:17;10.17;;;2.63;;
3967;SDS011;9221;42.646;23.380;2024-01-30T03:32:42;4.50;;;1.67;;
3967;SDS011;9221;42.646;23.380;2024-01-30T03:35:09;3.50;;;1.77;;
3967;SDS011;9221;42.646;23.380;2024-01-30T03:37:34;6.07;;;1.87;;
3967;SDS011;9221;42.646;23.380;2024-01-30T03:40:00;7.57;;;1.80;;
3967;SDS011;9221;42.646;23.380;2024-01-30T03:42:26;3.83;;;1.40;;
3967;SDS011;9221;42.646;23.380;2024-01-30T03:44:52;5.47;;;2.03;;
3967;SDS011;9221;42.646;23.380;2024-01-30T03:47:18;4.53;;;1.67;;
3967;SDS011;9221;42.646;23.380;2024-01-30T03:49:44;5.03;;;1.90;;
3967;SDS011;9221;42.646;23.380;2024-01-30T03:52:10;5.33;;;1.73;;
3967;SDS011;9221;42.646;23.380;2024-01-30T03:54:35;6.03;;;1.80;;
3967;SDS011;9221;42.646;23.380;2024-01-30T03:57:01;6.20;;;2.90;;
3967;SDS011;9221;42.646;23.380;2024-01-30T03:59:27;5.43;;;1.87;;
3967;SDS011;9221;42.646;23.380;2024-01-30T04:01:52;9.33;;;2.80;;
3967;SDS011;9221;42.646;23.380;2024-01-30T04:04:18;3.97;;;2.03;;
3967;SDS011;9221;42.646;23.380;2024-01-30T04:06:44;8.73;;;1.60;;
3967;SDS011;9221;42.646;23.380;2024-01-30T04:09:10;4.90;;;1.60;;
3967;SDS011;9221;42.646;23.380;2024-01-30T04:11:38;9.67;;;2.10;;
3967;SDS011;9221;42.646;23.380;2024-01-30T04:14:03;6.00;;;2.40;;
3967;SDS011;9221;42.646;23.380;2024-01-30T04:16:29;5.87;;;2.10;;
3967;SDS011;9221;42.646;23.380;2024-01-30T04:18:54;5.50;;;1.83;;
3967;SDS011;9221;42.646;23.380;2024-01-30T04:21:21;4.07;;;1.93;;
3967;SDS011;9221;42.646;23.380;2024-01-30T04:23:47;5.40;;;2.10;;
3967;SDS011;9221;42.646;23.380;2024-01-30T04:26:13;2.90;;;1.60;;
3967;SDS011;9221;42.646;23.380;2024-01-30T04:28:41;9.50;;;1.80;;
3967;SDS011;9221;42.646;23.380;2024-01-30T04:31:07;7.17;;;1.70;;
3967;SDS011;9221;42.646;23.380;2024-01-30T04:33:32;6.00;;;2.13;;
3967;SDS011;9221;42.646;23.380;2024-01-30T04:35:58;3.37;;;1.43;;
3967;SDS011;9221;42.646;23.380;2024-01-30T04:38:23;7.53;;;2.40;;
3967;SDS011;9221;42.646;23.380;2024-01-30T04:40:49;4.97;;;1.90;;
3967;SDS011;9221;42.646;23.380;2024-01-30T04:43:14;5.83;;;2.00;;
3967;SDS011;9221;42.646;23.380;2024-01-30T04:45:41;3.70;;;1.40;;
3967;SDS011;9221;42.646;23.380;2024-01-30T04:48:06;5.33;;;1.87;;
3967;SDS011;9221;42.646;23.380;2024-01-30T04:50:32;4.70;;;1.93;;
3967;SDS011;9221;42.646;23.380;2024-01-30T04:52:57;4.13;;;2.20;;
3967;SDS011;9221;42.646;23.380;2024-01-30T04:55:23;10.47;;;3.40;;
3967;SDS011;9221;42.646;23.380;2024-01-30T04:57:49;6.53;;;2.40;;
3967;SDS011;9221;42.646;23.380;2024-01-30T05:00:14;6.37;;;2.17;;
3967;SDS011;9221;42.646;23.380;2024-01-30T05:02:40;5.10;;;1.97;;
3967;SDS011;9221;42.646;23.380;2024-01-30T05:05:06;9.93;;;2.73;;
3967;SDS011;9221;42.646;23.380;2024-01-30T05:07:31;10.30;;;2.70;;
3967;SDS011;9221;42.646;23.380;2024-01-30T05:09:57;6.63;;;2.23;;
3967;SDS011;9221;42.646;23.380;2024-01-30T05:12:22;6.87;;;2.63;;
3967;SDS011;9221;42.646;23.380;2024-01-30T05:14:48;7.77;;;2.53;;
3967;SDS011;9221;42.646;23.380;2024-01-30T05:17:13;7.17;;;2.40;;
3967;SDS011;9221;42.646;23.380;2024-01-30T05:19:39;9.67;;;3.37;;
3967;SDS011;9221;42.646;23.380;2024-01-30T05:22:04;7.17;;;2.90;;
3967;SDS011;9221;42.646;23.380;2024-01-30T05:24:30;12.10;;;3.77;;
3967;SDS011;9221;42.646;23.380;2024-01-30T05:26:55;13.63;;;3.27;;
3967;SDS011;9221;42.646;23.380;2024-01-30T05:29:21;9.27;;;2.67;;
3967;SDS011;9221;42.646;23.380;2024-01-30T05:31:47;12.30;;;2.90;;
3967;SDS011;9221;42.646;23.380;2024-01-30T05:34:12;14.90;;;3.70;;
3967;SDS011;9221;42.646;23.380;2024-01-30T05:36:38;8.37;;;3.07;;
3967;SDS011;9221;42.646;23.380;2024-01-30T05:39:03;13.73;;;3.93;;
3967;SDS011;9221;42.646;23.380;2024-01-30T05:41:30;13.03;;;3.67;;
3967;SDS011;9221;42.646;23.380;2024-01-30T05:43:55;13.73;;;3.47;;
3967;SDS011;9221;42.646;23.380;2024-01-30T05:46:21;10.93;;;3.27;;
3967;SDS011;9221;42.646;23.380;2024-01-30T05:48:46;16.10;;;5.00;;
3967;SDS011;9221;42.646;23.380;2024-01-30T05:51:12;20.43;;;3.70;;
3967;SDS011;9221;42.646;23.380;2024-01-30T05:53:38;11.50;;;3.70;;
3967;SDS011;9221;42.646;23.380;2024-01-30T05:56:04;5.37;;;2.10;;
3967;SDS011;9221;42.646;23.380;2024-01-30T05:58:30;4.13;;;1.80;;
3967;SDS011;9221;42.646;23.380;2024-01-30T06:00:58;8.57;;;2.30;;
3967;SDS011;9221;42.646;23.380;2024-01-30T06:03:24;5.87;;;2.00;;
3967;SDS011;9221;42.646;23.380;2024-01-30T06:05:49;7.27;;;2.70;;
3967;SDS011;9221;42.646;23.380;2024-01-30T06:08:15;12.75;;;2.85;;
3967;SDS011;9221;42.646;23.380;2024-01-30T06:10:40;12.97;;;3.60;;
3967;SDS011;9221;42.646;23.380;2024-01-30T06:13:06;11.97;;;3.27;;
3967;SDS011;9221;42.646;23.380;2024-01-30T06:15:31;9.73;;;3.20;;
3967;SDS011;9221;42.646;23.380;2024-01-30T06:17:58;7.30;;;2.70;;
3967;SDS011;9221;42.646;23.380;2024-01-30T06:20:24;4.47;;;1.73;;
3967;SDS011;9221;42.646;23.380;2024-01-30T06:22:49;7.83;;;2.30;;
3967;SDS011;9221;42.646;23.380;2024-01-30T06:25:15;20.90;;;4.40;;
3967;SDS011;9221;42.646;23.380;2024-01-30T06:27:41;10.23;;;2.97;;
3967;SDS011;9221;42.646;23.380;2024-01-30T06:30:07;17.13;;;2.97;;
3967;SDS011;9221;42.646;23.380;2024-01-30T06:32:33;9.00;;;3.63;;
3967;SDS011;9221;42.646;23.380;2024-01-30T06:35:00;7.20;;;2.87;;
3967;SDS011;9221;42.646;23.380;2024-01-30T06:37:26;7.63;;;2.27;;
3967;SDS011;9221;42.646;23.380;2024-01-30T06:39:52;4.67;;;2.03;;
3967;SDS011;9221;42.646;23.380;2024-01-30T06:42:18;5.27;;;2.27;;
3967;SDS011;9221;42.646;23.380;2024-01-30T06:44:43;4.60;;;2.17;;
3967;SDS011;9221;42.646;23.380;2024-01-30T06:47:09;4.63;;;1.80;;
3967;SDS011;9221;42.646;23.380;2024-01-30T06:49:35;7.47;;;1.70;;
3967;SDS011;9221;42.646;23.380;2024-01-30T06:52:04;10.73;;;2.10;;
3967;SDS011;9221;42.646;23.380;2024-01-30T06:54:30;2.77;;;1.23;;
3967;SDS011;9221;42.646;23.380;2024-01-30T06:56:56;8.07;;;2.37;;
3967;SDS011;9221;42.646;23.380;2024-01-30T06:59:21;6.00;;;1.60;;
3967;SDS011;9221;42.646;23.380;2024-01-30T07:01:47;3.77;;;1.70;;
3967;SDS011;9221;42.646;23.380;2024-01-30T07:04:13;4.67;;;1.53;;
3967;SDS011;9221;42.646;23.380;2024-01-30T07:06:38;4.20;;;1.70;;
3967;SDS011;9221;42.646;23.380;2024-01-30T07:09:04;3.90;;;1.20;;
3967;SDS011;9221;42.646;23.380;2024-01-30T07:11:30;5.93;;;1.90;;
3967;SDS011;9221;42.646;23.380;2024-01-30T07:13:56;11.10;;;2.70;;
3967;SDS011;9221;42.646;23.380;2024-01-30T07:16:21;11.07;;;1.70;;
3967;SDS011;9221;42.646;23.380;2024-01-30T07:18:47;3.13;;;1.27;;
3967;SDS011;9221;42.646;23.380;2024-01-30T07:21:13;5.67;;;1.40;;
3967;SDS011;9221;42.646;23.380;2024-01-30T07:23:38;4.83;;;1.60;;
3967;SDS011;9221;42.646;23.380;2024-01-30T07:26:04;3.37;;;1.40;;
3967;SDS011;9221;42.646;23.380;2024-01-30T07:28:31;6.00;;;1.77;;
3967;SDS011;9221;42.646;23.380;2024-01-30T07:30:57;3.90;;;1.40;;
3967;SDS011;9221;42.646;23.380;2024-01-30T07:33:22;5.33;;;2.00;;
3967;SDS011;9221;42.646;23.380;2024-01-30T07:35:48;2.80;;;1.53;;
3967;SDS011;9221;42.646;23.380;2024-01-30T07:38:14;4.00;;;1.40;;
3967;SDS011;9221;42.646;23.380;2024-01-30T07:40:39;3.20;;;0.83;;
3967;SDS011;9221;42.646;23.380;2024-01-30T07:43:06;4.10;;;1.90;;
3967;SDS011;9221;42.646;23.380;2024-01-30T07:45:31;2.70;;;1.33;;
3967;SDS011;9221;42.646;23.380;2024-01-30T07:47:58;10.73;;;2.07;;
3967;SDS011;9221;42.646;23.380;2024-01-30T07:50:25;7.40;;;2.03;;
3967;SDS011;9221;42.646;23.380;2024-01-30T07:52:50;5.23;;;1.67;;
3967;SDS011;9221;42.646;23.380;2024-01-30T07:55:19;3.30;;;1.67;;
3967;SDS011;9221;42.646;23.380;2024-01-30T07:57:46;5.10;;;1.83;;
3967;SDS011;9221;42.646;23.380;2024-01-30T08:00:12;9.57;;;2.23;;
3967;SDS011;9221;42.646;23.380;2024-01-30T08:02:38;6.10;;;2.03;;
3967;SDS011;9221;42.646;23.380;2024-01-30T08:05:04;4.33;;;1.80;;
3967;SDS011;9221;42.646;23.380;2024-01-30T08:07:30;7.33;;;2.40;;
3967;SDS011;9221;42.646;23.380;2024-01-30T08:09:55;6.33;;;2.07;;
3967;SDS011;9221;42.646;23.380;2024-01-30T08:12:21;6.10;;;1.97;;
3967;SDS011;9221;42.646;23.380;2024-01-30T08:14:46;5.80;;;2.30;;
3967;SDS011;9221;42.646;23.380;2024-01-30T08:17:12;7.43;;;2.10;;
3967;SDS011;9221;42.646;23.380;2024-01-30T08:19:37;5.23;;;2.07;;
3967;SDS011;9221;42.646;23.380;2024-01-30T08:22:03;3.93;;;1.80;;
3967;SDS011;9221;42.646;23.380;2024-01-30T08:24:28;7.67;;;2.40;;
3967;SDS011;9221;42.646;23.380;2024-01-30T08:26:54;3.53;;;1.67;;
3967;SDS011;9221;42.646;23.380;2024-01-30T08:29:19;6.83;;;2.80;;
3967;SDS011;9221;42.646;23.380;2024-01-30T08:31:45;7.20;;;2.03;;
3967;SDS011;9221;42.646;23.380;2024-01-30T08:34:11;7.33;;;2.63;;
3967;SDS011;9221;42.646;23.380;2024-01-30T08:36:36;6.77;;;2.33;;
3967;SDS011;9221;42.646;23.380;2024-01-30T08:39:02;12.67;;;3.57;;
3967;SDS011;9221;42.646;23.380;2024-01-30T08:41:28;5.57;;;2.20;;
3967;SDS011;9221;42.646;23.380;2024-01-30T08:43:53;12.67;;;3.70;;
3967;SDS011;9221;42.646;23.380;2024-01-30T08:46:19;12.50;;;4.70;;
3967;SDS011;9221;42.646;23.380;2024-01-30T08:48:46;9.77;;;3.47;;
3967;SDS011;9221;42.646;23.380;2024-01-30T08:51:12;4.97;;;2.47;;
3967;SDS011;9221;42.646;23.380;2024-01-30T08:53:39;9.63;;;3.03;;
3967;SDS011;9221;42.646;23.380;2024-01-30T08:56:05;10.30;;;3.00;;
3967;SDS011;9221;42.646;23.380;2024-01-30T08:58:31;7.23;;;2.53;;
3967;SDS011;9221;42.646;23.380;2024-01-30T09:00:57;4.73;;;1.87;;
3967;SDS011;9221;42.646;23.380;2024-01-30T09:03:22;8.63;;;2.73;;
3967;SDS011;9221;42.646;23.380;2024-01-30T09:05:48;6.73;;;1.93;;
3967;SDS011;9221;42.646;23.380;2024-01-30T09:08:13;8.60;;;2.20;;
3967;SDS011;9221;42.646;23.380;2024-01-30T09:10:39;9.47;;;2.67;;
3967;SDS011;9221;42.646;23.380;2024-01-30T09:13:04;4.83;;;1.97;;
3967;SDS011;9221;42.646;23.380;2024-01-30T09:15:30;4.10;;;1.80;;
3967;SDS011;9221;42.646;23.380;2024-01-30T09:17:55;5.43;;;2.40;;
3967;SDS011;9221;42.646;23.380;2024-01-30T09:20:21;6.90;;;2.33;;
3967;SDS011;9221;42.646;23.380;2024-01-30T09:22:47;4.47;;;2.07;;
3967;SDS011;9221;42.646;23.380;2024-01-30T09:25:13;7.37;;;2.57;;
3967;SDS011;9221;42.646;23.380;2024-01-30T09:27:39;8.03;;;2.30;;
3967;SDS011;9221;42.646;23.380;2024-01-30T09:30:05;7.73;;;2.57;;
3967;SDS011;9221;42.646;23.380;2024-01-30T09:32:31;5.57;;;2.30;;
3967;SDS011;9221;42.646;23.380;2024-01-30T09:34:56;15.77;;;3.70;;
3967;SDS011;9221;42.646;23.380;2024-01-30T09:37:22;10.00;;;3.70;;
3967;SDS011;9221;42.646;23.380;2024-01-30T09:39:47;15.10;;;4.30;;
3967;SDS011;9221;42.646;23.380;2024-01-30T09:45:04;11.13;;;3.13;;
3967;SDS011;9221;42.646;23.380;2024-01-30T09:47:40;9.33;;;3.10;;
3967;SDS011;9221;42.646;23.380;2024-01-30T09:50:09;13.73;;;4.00;;
3967;SDS011;9221;42.646;23.380;2024-01-30T09:52:37;8.00;;;3.20;;
3967;SDS011;9221;42.646;23.380;2024-01-30T09:55:05;7.70;;;3.40;;
3967;SDS011;9221;42.646;23.380;2024-01-30T09:57:31;14.37;;;3.50;;
3967;SDS011;9221;42.646;23.380;2024-01-30T09:59:57;10.43;;;3.37;;
3967;SDS011;9221;42.646;23.380;2024-01-30T10:02:22;7.80;;;3.37;;
3967;SDS011;9221;42.646;23.380;2024-01-30T10:04:49;8.70;;;3.27;;
3967;SDS011;9221;42.646;23.380;2024-01-30T10:07:15;8.90;;;3.47;;
3967;SDS011;9221;42.646;23.380;2024-01-30T10:09:41;6.73;;;3.00;;
3967;SDS011;9221;42.646;23.380;2024-01-30T10:12:08;8.87;;;3.20;;
3967;SDS011;9221;42.646;23.380;2024-01-30T10:14:37;10.63;;;3.30;;
3967;SDS011;9221;42.646;23.380;2024-01-30T10:17:03;7.03;;;2.80;;
3967;SDS011;9221;42.646;23.380;2024-01-30T10:19:29;11.43;;;3.50;;
3967;SDS011;9221;42.646;23.380;2024-01-30T10:21:54;7.37;;;2.73;;
3967;SDS011;9221;42.646;23.380;2024-01-30T10:24:23;8.30;;;2.47;;
3967;SDS011;9221;42.646;23.380;2024-01-30T10:26:49;16.60;;;2.80;;
3967;SDS011;9221;42.646;23.380;2024-01-30T10:29:16;7.70;;;2.73;;
3967;SDS011;9221;42.646;23.380;2024-01-30T10:31:42;7.43;;;3.60;;
3967;SDS011;9221;42.646;23.380;2024-01-30T10:34:07;10.57;;;2.90;;
3967;SDS011;9221;42.646;23.380;2024-01-30T10:36:33;11.63;;;3.40;;
3967;SDS011;9221;42.646;23.380;2024-01-30T10:39:08;9.03;;;2.53;;
3967;SDS011;9221;42.646;23.380;2024-01-30T10:41:36;9.23;;;2.73;;
3967;SDS011;9221;42.646;23.380;2024-01-30T10:44:09;6.80;;;1.77;;
3967;SDS011;9221;42.646;23.380;2024-01-30T10:46:37;5.77;;;2.67;;
3967;SDS011;9221;42.646;23.380;2024-01-30T10:49:04;6.00;;;2.43;;
3967;SDS011;9221;42.646;23.380;2024-01-30T10:51:31;5.90;;;2.23;;
3967;SDS011;9221;42.646;23.380;2024-01-30T10:53:57;8.43;;;2.13;;
3967;SDS011;9221;42.646;23.380;2024-01-30T10:56:23;5.43;;;1.83;;
3967;SDS011;9221;42.646;23.380;2024-01-30T10:58:50;5.77;;;2.10;;
3967;SDS011;9221;42.646;23.380;2024-01-30T11:01:20;6.00;;;1.57;;
3967;SDS011;9221;42.646;23.380;2024-01-30T11:03:54;8.80;;;2.80;;
3967;SDS011;9221;42.646;23.380;2024-01-30T11:06:25;5.50;;;2.13;;
3967;SDS011;9221;42.646;23.380;2024-01-30T11:09:00;4.70;;;2.43;;
3967;SDS011;9221;42.646;23.380;2024-01-30T11:11:46;9.73;;;2.37;;
3967;SDS011;9221;42.646;23.380;2024-01-30T11:14:25;9.30;;;3.23;;
3967;SDS011;9221;42.646;23.380;2024-01-30T11:16:51;8.83;;;2.73;;
3967;SDS011;9221;42.646;23.380;2024-01-30T11:19:26;8.67;;;3.07;;
3967;SDS011;9221;42.646;23.380;2024-01-30T11:21:55;5.00;;;2.33;;
3967;SDS011;9221;42.646;23.380;2024-01-30T11:24:24;11.27;;;3.40;;
3967;SDS011;9221;42.646;23.380;2024-01-30T11:26:56;8.80;;;2.63;;
3967;SDS011;9221;42.646;23.380;2024-01-30T11:29:27;5.30;;;2.10;;
3967;SDS011;9221;42.646;23.380;2024-01-30T11:31:53;5.93;;;2.40;;
3967;SDS011;9221;42.646;23.380;2024-01-30T11:34:20;5.60;;;2.10;;
3967;SDS011;9221;42.646;23.380;2024-01-30T11:36:48;5.90;;;1.70;;
3967;SDS011;9221;42.646;23.380;2024-01-30T11:39:23;6.50;;;2.83;;
3967;SDS011;9221;42.646;23.380;2024-01-30T11:41:50;8.20;;;2.27;;
3967;SDS011;9221;42.646;23.380;2024-01-30T11:44:19;3.97;;;1.60;;
3967;SDS011;9221;42.646;23.380;2024-01-30T11:46:46;5.83;;;1.77;;
3967;SDS011;9221;42.646;23.380;2024-01-30T11:49:13;5.17;;;2.20;;
3967;SDS011;9221;42.646;23.380;2024-01-30T11:51:39;3.13;;;1.50;;
3967;SDS011;9221;42.646;23.380;2024-01-30T11:54:04;4.33;;;1.97;;
3967;SDS011;9221;42.646;23.380;2024-01-30T11:56:30;10.50;;;2.00;;
3967;SDS011;9221;42.646;23.380;2024-01-30T11:58:55;6.27;;;2.23;;
3967;SDS011;9221;42.646;23.380;2024-01-30T12:01:21;5.43;;;2.03;;
3967;SDS011;9221;42.646;23.380;2024-01-30T12:03:50;15.60;;;3.13;;
3967;SDS011;9221;42.646;23.380;2024-01-30T12:06:15;7.63;;;2.57;;
3967;SDS011;9221;42.646;23.380;2024-01-30T12:08:41;5.47;;;2.00;;
3967;SDS011;9221;42.646;23.380;2024-01-30T12:11:07;5.47;;;2.10;;
3967;SDS011;9221;42.646;23.380;2024-01-30T12:13:33;4.47;;;1.80;;
3967;SDS011;9221;42.646;23.380;2024-01-30T12:16:02;4.43;;;1.80;;
3967;SDS011;9221;42.646;23.380;2024-01-30T12:18:28;4.50;;;1.80;;
3967;SDS011;9221;42.646;23.380;2024-01-30T12:21:00;6.93;;;2.50;;
3967;SDS011;9221;42.646;23.380;2024-01-30T12:23:28;5.20;;;2.27;;
3967;SDS011;9221;42.646;23.380;2024-01-30T12:25:54;9.23;;;2.47;;
3967;SDS011;9221;42.646;23.380;2024-01-30T12:28:20;6.37;;;2.07;;
3967;SDS011;9221;42.646;23.380;2024-01-30T12:30:46;7.23;;;2.57;;
3967;SDS011;9221;42.646;23.380;2024-01-30T12:33:18;5.90;;;2.03;;
3967;SDS011;9221;42.646;23.380;2024-01-30T12:35:47;6.53;;;2.93;;
3967;SDS011;9221;42.646;23.380;2024-01-30T12:38:13;8.90;;;3.10;;
3967;SDS011;9221;42.646;23.380;2024-01-30T12:40:39;7.23;;;2.40;;
3967;SDS011;9221;42.646;23.380;2024-01-30T12:43:05;7.40;;;3.07;;
3967;SDS011;9221;42.646;23.380;2024-01-30T12:45:31;8.13;;;2.43;;
3967;SDS011;9221;42.646;23.380;2024-01-30T12:47:56;4.63;;;1.90;;
3967;SDS011;9221;42.646;23.380;2024-01-30T12:50:23;10.53;;;2.10;;
3967;SDS011;9221;42.646;23.380;2024-01-30T12:52:49;6.47;;;2.10;;
3967;SDS011;9221;42.646;23.380;2024-01-30T12:55:14;6.63;;;2.50;;
3967;SDS011;9221;42.646;23.380;2024-01-30T12:57:40;8.77;;;2.60;;
3967;SDS011;9221;42.646;23.380;2024-01-30T13:00:07;5.60;;;2.17;;
3967;SDS011;9221;42.646;23.380;2024-01-30T13:02:35;8.03;;;2.57;;
3967;SDS011;9221;42.646;23.380;2024-01-30T13:05:02;7.63;;;2.70;;
3967;SDS011;9221;42.646;23.380;2024-01-30T13:07:29;9.53;;;2.43;;
3967;SDS011;9221;42.646;23.380;2024-01-30T13:09:54;8.77;;;2.60;;
3967;SDS011;9221;42.646;23.380;2024-01-30T13:12:20;8.10;;;2.70;;
3967;SDS011;9221;42.646;23.380;2024-01-30T13:14:45;6.10;;;1.93;;
3967;SDS011;9221;42.646;23.380;2024-01-30T13:17:11;9.37;;;2.73;;
3967;SDS011;9221;42.646;23.380;2024-01-30T13:19:37;8.80;;;2.43;;
3967;SDS011;9221;42.646;23.380;2024-01-30T13:22:02;7.20;;;2.77;;
3967;SDS011;9221;42.646;23.380;2024-01-30T13:24:28;7.67;;;2.97;;
3967;SDS011;9221;42.646;23.380;2024-01-30T13:26:54;8.53;;;2.30;;
3967;SDS011;9221;42.646;23.380;2024-01-30T13:29:19;18.03;;;3.20;;
3967;SDS011;9221;42.646;23.380;2024-01-30T13:31:45;8.73;;;2.90;;
3967;SDS011;9221;42.646;23.380;2024-01-30T13:34:11;7.50;;;2.33;;
3967;SDS011;9221;42.646;23.380;2024-01-30T13:36:38;7.53;;;2.27;;
3967;SDS011;9221;42.646;23.380;2024-01-30T13:39:04;9.43;;;2.90;;
3967;SDS011;9221;42.646;23.380;2024-01-30T13:41:33;6.63;;;2.50;;
3967;SDS011;9221;42.646;23.380;2024-01-30T13:43:59;7.73;;;2.57;;
3967;SDS011;9221;42.646;23.380;2024-01-30T13:46:24;8.90;;;3.30;;
3967;SDS011;9221;42.646;23.380;2024-01-30T13:48:50;7.93;;;3.00;;
3967;SDS011;9221;42.646;23.380;2024-01-30T13:51:16;9.67;;;2.60;;
3967;SDS011;9221;42.646;23.380;2024-01-30T13:53:42;7.10;;;2.77;;
3967;SDS011;9221;42.646;23.380;2024-01-30T13:56:08;8.40;;;3.50;;
3967;SDS011;9221;42.646;23.380;2024-01-30T13:58:33;10.57;;;3.60;;
3967;SDS011;9221;42.646;23.380;2024-01-30T14:01:01;11.90;;;2.87;;
3967;SDS011;9221;42.646;23.380;2024-01-30T14:03:27;7.33;;;2.40;;
3967;SDS011;9221;42.646;23.380;2024-01-30T14:05:52;11.33;;;2.90;;
3967;SDS011;9221;42.646;23.380;2024-01-30T14:08:18;6.40;;;2.53;;
3967;SDS011;9221;42.646;23.380;2024-01-30T14:10:46;8.00;;;2.77;;
3967;SDS011;9221;42.646;23.380;2024-01-30T14:13:12;7.37;;;2.50;;
3967;SDS011;9221;42.646;23.380;2024-01-30T14:15:37;10.50;;;3.90;;
3967;SDS011;9221;42.646;23.380;2024-01-30T14:18:03;12.80;;;3.53;;
3967;SDS011;9221;42.646;23.380;2024-01-30T14:20:30;9.73;;;2.97;;
3967;SDS011;9221;42.646;23.380;2024-01-30T14:22:56;9.40;;;2.60;;
3967;SDS011;9221;42.646;23.380;2024-01-30T14:25:22;12.10;;;2.57;;
3967;SDS011;9221;42.646;23.380;2024-01-30T14:27:47;9.80;;;2.73;;
3967;SDS011;9221;42.646;23.380;2024-01-30T14:30:13;8.53;;;2.03;;
3967;SDS011;9221;42.646;23.380;2024-01-30T14:32:38;5.90;;;2.47;;
3967;SDS011;9221;42.646;23.380;2024-01-30T14:35:05;10.10;;;3.20;;
3967;SDS011;9221;42.646;23.380;2024-01-30T14:37:31;7.67;;;2.83;;
3967;SDS011;9221;42.646;23.380;2024-01-30T14:39:56;4.40;;;2.17;;
3967;SDS011;9221;42.646;23.380;2024-01-30T14:42:22;6.13;;;2.03;;
3967;SDS011;9221;42.646;23.380;2024-01-30T14:44:47;9.80;;;3.07;;
3967;SDS011;9221;42.646;23.380;2024-01-30T14:47:14;5.50;;;2.53;;
3967;SDS011;9221;42.646;23.380;2024-01-30T14:49:39;5.07;;;2.40;;
3967;SDS011;9221;42.646;23.380;2024-01-30T14:52:05;11.57;;;2.40;;
3967;SDS011;9221;42.646;23.380;2024-01-30T14:54:30;6.67;;;2.70;;